sensor_id;sensor_type;location;lat;lon;timestamp;P1;durP1;ratioP1;P2;durP2;ratioP2
10090;SDS011;5084;51.386;6.778;2023-07-16T00:02:10;2.43;;;2.23;;
10090;SDS011;5084;51.386;6.778;2023-07-16T00:04:40;2.93;;;2.17;;
10090;SDS011;5084;51.386;6.778;2023-07-16T00:07:06;2.80;;;2.40;;
10090;SDS011;5084;51.386;6.778;2023-07-16T00:09:32;2.27;;;2.10;;
10090;SDS011;5084;51.386;6.778;2023-07-16T00:11:59;2.80;;;2.60;;
10090;SDS011;5084;51.386;6.778;2023-07-16T00:14:25;2.83;;;2.20;;
10090;SDS011;5084;51.386;6.778;2023-07-16T00:16:51;2.50;;;2.10;;
10090;SDS011;5084;51.386;6.778;2023-07-16T00:19:17;3.47;;;2.47;;
10090;SDS011;5084;51.386;6.778;2023-07-16T00:21:44;2.20;;;2.00;;
10090;SDS011;5084;51.386;6.778;2023-07-16T00:24:10;2.60;;;2.40;;
10090;SDS011;5084;51.386;6.778;2023-07-16T00:26:36;2.40;;;2.20;;
10090;SDS011;5084;51.386;6.778;2023-07-16T00:29:03;2.30;;;2.10;;
10090;SDS011;5084;51.386;6.778;2023-07-16T00:31:29;2.63;;;2.43;;
10090;SDS011;5084;51.386;6.778;2023-07-16T00:33:55;2.60;;;2.30;;
10090;SDS011;5084;51.386;6.778;2023-07-16T00:36:21;2.50;;;2.30;;
10090;SDS011;5084;51.386;6.778;2023-07-16T00:38:48;2.53;;;2.33;;
10090;SDS011;5084;51.386;6.778;2023-07-16T00:41:15;3.33;;;2.30;;
10090;SDS011;5084;51.386;6.778;2023-07-16T00:43:41;2.50;;;2.10;;
10090;SDS011;5084;51.386;6.778;2023-07-16T00:46:08;3.67;;;2.53;;
10090;SDS011;5084;51.386;6.778;2023-07-16T00:48:34;2.63;;;2.27;;
10090;SDS011;5084;51.386;6.778;2023-07-16T00:51:01;2.40;;;2.20;;
10090;SDS011;5084;51.386;6.778;2023-07-16T00:53:28;2.63;;;2.43;;
10090;SDS011;5084;51.386;6.778;2023-07-16T00:55:55;2.77;;;2.10;;
10090;SDS011;5084;51.386;6.778;2023-07-16T00:58:21;4.83;;;2.53;;
10090;SDS011;5084;51.386;6.778;2023-07-16T01:00:47;2.60;;;2.40;;
10090;SDS011;5084;51.386;6.778;2023-07-16T01:03:14;2.70;;;2.50;;
10090;SDS011;5084;51.386;6.778;2023-07-16T01:05:45;2.87;;;2.40;;
10090;SDS011;5084;51.386;6.778;2023-07-16T01:08:14;2.47;;;2.30;;
10090;SDS011;5084;51.386;6.778;2023-07-16T01:10:43;2.90;;;2.60;;
10090;SDS011;5084;51.386;6.778;2023-07-16T01:13:09;2.50;;;2.27;;
10090;SDS011;5084;51.386;6.778;2023-07-16T01:15:36;2.80;;;2.60;;
10090;SDS011;5084;51.386;6.778;2023-07-16T01:18:03;2.60;;;2.40;;
10090;SDS011;5084;51.386;6.778;2023-07-16T01:20:29;2.87;;;2.37;;
10090;SDS011;5084;51.386;6.778;2023-07-16T01:23:21;3.30;;;2.13;;
10090;SDS011;5084;51.386;6.778;2023-07-16T01:26:00;2.97;;;2.70;;
10090;SDS011;5084;51.386;6.778;2023-07-16T01:31:06;4.13;;;2.40;;
10090;SDS011;5084;51.386;6.778;2023-07-16T01:33:33;2.50;;;2.30;;
10090;SDS011;5084;51.386;6.778;2023-07-16T01:36:00;2.50;;;2.30;;
10090;SDS011;5084;51.386;6.778;2023-07-16T01:38:26;3.33;;;2.43;;
10090;SDS011;5084;51.386;6.778;2023-07-16T01:40:53;2.60;;;2.40;;
10090;SDS011;5084;51.386;6.778;2023-07-16T01:43:19;3.23;;;3.03;;
10090;SDS011;5084;51.386;6.778;2023-07-16T01:45:45;3.30;;;2.40;;
10090;SDS011;5084;51.386;6.778;2023-07-16T01:50:38;3.77;;;2.17;;
10090;SDS011;5084;51.386;6.778;2023-07-16T01:53:04;2.40;;;1.97;;
10090;SDS011;5084;51.386;6.778;2023-07-16T01:55:30;4.20;;;2.20;;
10090;SDS011;5084;51.386;6.778;2023-07-16T01:57:56;2.37;;;2.17;;
10090;SDS011;5084;51.386;6.778;2023-07-16T02:00:23;2.57;;;2.37;;
10090;SDS011;5084;51.386;6.778;2023-07-16T02:02:49;3.63;;;2.37;;
10090;SDS011;5084;51.386;6.778;2023-07-16T02:05:16;2.00;;;1.90;;
10090;SDS011;5084;51.386;6.778;2023-07-16T02:07:42;4.97;;;2.60;;
10090;SDS011;5084;51.386;6.778;2023-07-16T02:10:08;3.47;;;2.13;;
10090;SDS011;5084;51.386;6.778;2023-07-16T02:12:34;3.33;;;2.60;;
10090;SDS011;5084;51.386;6.778;2023-07-16T02:15:00;3.43;;;2.30;;
10090;SDS011;5084;51.386;6.778;2023-07-16T02:17:27;2.43;;;2.20;;
10090;SDS011;5084;51.386;6.778;2023-07-16T02:19:53;5.87;;;2.60;;
10090;SDS011;5084;51.386;6.778;2023-07-16T02:22:19;3.00;;;2.80;;
10090;SDS011;5084;51.386;6.778;2023-07-16T02:24:45;2.40;;;2.20;;
10090;SDS011;5084;51.386;6.778;2023-07-16T02:27:11;2.80;;;2.47;;
10090;SDS011;5084;51.386;6.778;2023-07-16T02:29:37;3.03;;;2.27;;
10090;SDS011;5084;51.386;6.778;2023-07-16T02:32:03;4.37;;;2.57;;
10090;SDS011;5084;51.386;6.778;2023-07-16T02:34:29;3.27;;;2.33;;
10090;SDS011;5084;51.386;6.778;2023-07-16T02:36:55;3.13;;;2.50;;
10090;SDS011;5084;51.386;6.778;2023-07-16T02:39:21;2.93;;;2.40;;
10090;SDS011;5084;51.386;6.778;2023-07-16T02:41:47;4.47;;;2.50;;
10090;SDS011;5084;51.386;6.778;2023-07-16T02:44:13;2.70;;;2.50;;
10090;SDS011;5084;51.386;6.778;2023-07-16T02:46:39;3.13;;;2.40;;
10090;SDS011;5084;51.386;6.778;2023-07-16T02:49:06;2.50;;;2.30;;
10090;SDS011;5084;51.386;6.778;2023-07-16T02:51:32;2.77;;;2.57;;
10090;SDS011;5084;51.386;6.778;2023-07-16T02:53:58;3.30;;;2.43;;
10090;SDS011;5084;51.386;6.778;2023-07-16T02:56:25;2.53;;;2.33;;
10090;SDS011;5084;51.386;6.778;2023-07-16T02:58:51;3.53;;;2.20;;
10090;SDS011;5084;51.386;6.778;2023-07-16T03:01:17;4.20;;;3.80;;
10090;SDS011;5084;51.386;6.778;2023-07-16T03:03:43;2.57;;;2.37;;
10090;SDS011;5084;51.386;6.778;2023-07-16T03:06:09;3.03;;;2.53;;
10090;SDS011;5084;51.386;6.778;2023-07-16T03:08:35;3.83;;;2.20;;
10090;SDS011;5084;51.386;6.778;2023-07-16T03:11:01;2.73;;;2.53;;
10090;SDS011;5084;51.386;6.778;2023-07-16T03:13:27;5.67;;;2.47;;
10090;SDS011;5084;51.386;6.778;2023-07-16T03:15:53;5.07;;;2.60;;
10090;SDS011;5084;51.386;6.778;2023-07-16T03:18:20;4.23;;;3.87;;
10090;SDS011;5084;51.386;6.778;2023-07-16T03:20:46;2.70;;;2.47;;
10090;SDS011;5084;51.386;6.778;2023-07-16T03:23:12;3.27;;;2.37;;
10090;SDS011;5084;51.386;6.778;2023-07-16T03:25:38;2.67;;;2.47;;
10090;SDS011;5084;51.386;6.778;2023-07-16T03:28:04;2.50;;;2.30;;
10090;SDS011;5084;51.386;6.778;2023-07-16T03:30:31;3.77;;;3.07;;
10090;SDS011;5084;51.386;6.778;2023-07-16T03:32:58;4.53;;;2.70;;
10090;SDS011;5084;51.386;6.778;2023-07-16T03:35:24;3.00;;;2.33;;
10090;SDS011;5084;51.386;6.778;2023-07-16T03:37:51;2.57;;;2.37;;
10090;SDS011;5084;51.386;6.778;2023-07-16T03:40:18;3.77;;;3.40;;
10090;SDS011;5084;51.386;6.778;2023-07-16T03:42:44;4.73;;;2.70;;
10090;SDS011;5084;51.386;6.778;2023-07-16T03:45:10;4.23;;;2.63;;
10090;SDS011;5084;51.386;6.778;2023-07-16T03:47:37;2.97;;;2.60;;
10090;SDS011;5084;51.386;6.778;2023-07-16T03:50:03;4.10;;;2.43;;
10090;SDS011;5084;51.386;6.778;2023-07-16T03:52:29;3.03;;;2.27;;
10090;SDS011;5084;51.386;6.778;2023-07-16T03:54:55;2.40;;;2.20;;
10090;SDS011;5084;51.386;6.778;2023-07-16T03:57:21;2.53;;;2.20;;
10090;SDS011;5084;51.386;6.778;2023-07-16T03:59:47;2.40;;;2.17;;
10090;SDS011;5084;51.386;6.778;2023-07-16T04:02:13;3.60;;;3.20;;
10090;SDS011;5084;51.386;6.778;2023-07-16T04:04:39;3.70;;;2.57;;
10090;SDS011;5084;51.386;6.778;2023-07-16T04:07:05;3.63;;;3.30;;
10090;SDS011;5084;51.386;6.778;2023-07-16T04:09:31;2.53;;;2.20;;
10090;SDS011;5084;51.386;6.778;2023-07-16T04:11:57;3.23;;;2.30;;
10090;SDS011;5084;51.386;6.778;2023-07-16T04:14:23;4.83;;;2.93;;
10090;SDS011;5084;51.386;6.778;2023-07-16T04:16:49;2.30;;;2.10;;
10090;SDS011;5084;51.386;6.778;2023-07-16T04:19:16;3.13;;;2.00;;
10090;SDS011;5084;51.386;6.778;2023-07-16T04:21:43;2.77;;;2.33;;
10090;SDS011;5084;51.386;6.778;2023-07-16T04:24:09;3.80;;;2.73;;
10090;SDS011;5084;51.386;6.778;2023-07-16T04:26:36;4.00;;;2.40;;
10090;SDS011;5084;51.386;6.778;2023-07-16T04:29:02;5.90;;;2.17;;
10090;SDS011;5084;51.386;6.778;2023-07-16T04:31:28;3.77;;;2.43;;
10090;SDS011;5084;51.386;6.778;2023-07-16T04:33:54;2.83;;;2.63;;
10090;SDS011;5084;51.386;6.778;2023-07-16T04:36:20;2.63;;;2.23;;
10090;SDS011;5084;51.386;6.778;2023-07-16T04:38:46;2.53;;;2.30;;
10090;SDS011;5084;51.386;6.778;2023-07-16T04:41:12;6.07;;;4.03;;
10090;SDS011;5084;51.386;6.778;2023-07-16T04:43:38;2.90;;;2.40;;
10090;SDS011;5084;51.386;6.778;2023-07-16T04:46:04;3.70;;;2.93;;
10090;SDS011;5084;51.386;6.778;2023-07-16T04:48:31;3.20;;;2.50;;
10090;SDS011;5084;51.386;6.778;2023-07-16T04:50:57;4.00;;;2.67;;
10090;SDS011;5084;51.386;6.778;2023-07-16T04:53:24;5.50;;;2.90;;
10090;SDS011;5084;51.386;6.778;2023-07-16T04:55:51;4.90;;;2.70;;
10090;SDS011;5084;51.386;6.778;2023-07-16T04:58:17;6.33;;;2.30;;
10090;SDS011;5084;51.386;6.778;2023-07-16T05:00:43;5.73;;;3.17;;
10090;SDS011;5084;51.386;6.778;2023-07-16T05:03:10;3.87;;;2.40;;
10090;SDS011;5084;51.386;6.778;2023-07-16T05:05:36;4.63;;;2.87;;
10090;SDS011;5084;51.386;6.778;2023-07-16T05:08:02;4.67;;;2.63;;
10090;SDS011;5084;51.386;6.778;2023-07-16T05:10:28;4.23;;;2.60;;
10090;SDS011;5084;51.386;6.778;2023-07-16T05:12:54;4.10;;;2.83;;
10090;SDS011;5084;51.386;6.778;2023-07-16T05:15:21;3.03;;;2.73;;
10090;SDS011;5084;51.386;6.778;2023-07-16T05:17:48;8.13;;;3.13;;
10090;SDS011;5084;51.386;6.778;2023-07-16T05:20:15;3.07;;;2.60;;
10090;SDS011;5084;51.386;6.778;2023-07-16T05:22:41;4.50;;;2.73;;
10090;SDS011;5084;51.386;6.778;2023-07-16T05:25:09;5.00;;;3.07;;
10090;SDS011;5084;51.386;6.778;2023-07-16T05:27:35;3.93;;;3.37;;
10090;SDS011;5084;51.386;6.778;2023-07-16T05:30:02;5.37;;;2.80;;
10090;SDS011;5084;51.386;6.778;2023-07-16T05:32:28;5.17;;;2.70;;
10090;SDS011;5084;51.386;6.778;2023-07-16T05:34:55;3.27;;;2.70;;
10090;SDS011;5084;51.386;6.778;2023-07-16T05:37:21;4.90;;;2.90;;
10090;SDS011;5084;51.386;6.778;2023-07-16T05:39:48;8.90;;;3.10;;
10090;SDS011;5084;51.386;6.778;2023-07-16T05:42:14;3.43;;;2.67;;
10090;SDS011;5084;51.386;6.778;2023-07-16T05:44:40;3.07;;;2.77;;
10090;SDS011;5084;51.386;6.778;2023-07-16T05:47:07;3.57;;;2.93;;
10090;SDS011;5084;51.386;6.778;2023-07-16T05:49:34;3.90;;;3.10;;
10090;SDS011;5084;51.386;6.778;2023-07-16T05:52:00;4.33;;;3.17;;
10090;SDS011;5084;51.386;6.778;2023-07-16T05:54:27;4.60;;;3.35;;
10090;SDS011;5084;51.386;6.778;2023-07-16T05:56:54;3.83;;;3.40;;
10090;SDS011;5084;51.386;6.778;2023-07-16T05:59:20;5.43;;;3.40;;
10090;SDS011;5084;51.386;6.778;2023-07-16T06:01:47;6.37;;;3.60;;
10090;SDS011;5084;51.386;6.778;2023-07-16T06:04:13;7.00;;;3.47;;
10090;SDS011;5084;51.386;6.778;2023-07-16T06:06:40;5.00;;;3.13;;
10090;SDS011;5084;51.386;6.778;2023-07-16T06:09:06;4.47;;;3.37;;
10090;SDS011;5084;51.386;6.778;2023-07-16T06:11:32;4.50;;;3.10;;
10090;SDS011;5084;51.386;6.778;2023-07-16T06:13:58;4.30;;;2.90;;
10090;SDS011;5084;51.386;6.778;2023-07-16T06:16:25;4.03;;;3.10;;
10090;SDS011;5084;51.386;6.778;2023-07-16T06:18:52;4.80;;;3.47;;
10090;SDS011;5084;51.386;6.778;2023-07-16T06:21:19;3.60;;;2.93;;
10090;SDS011;5084;51.386;6.778;2023-07-16T06:23:45;4.93;;;3.30;;
10090;SDS011;5084;51.386;6.778;2023-07-16T06:26:11;3.97;;;3.50;;
10090;SDS011;5084;51.386;6.778;2023-07-16T06:28:38;4.73;;;3.60;;
10090;SDS011;5084;51.386;6.778;2023-07-16T06:31:04;4.17;;;3.60;;
10090;SDS011;5084;51.386;6.778;2023-07-16T06:33:30;4.63;;;4.03;;
10090;SDS011;5084;51.386;6.778;2023-07-16T06:35:57;4.53;;;3.70;;
10090;SDS011;5084;51.386;6.778;2023-07-16T06:38:23;5.87;;;3.97;;
10090;SDS011;5084;51.386;6.778;2023-07-16T06:40:49;4.90;;;3.80;;
10090;SDS011;5084;51.386;6.778;2023-07-16T06:43:16;4.73;;;3.70;;
10090;SDS011;5084;51.386;6.778;2023-07-16T06:45:42;4.87;;;3.27;;
10090;SDS011;5084;51.386;6.778;2023-07-16T06:48:08;6.70;;;3.90;;
10090;SDS011;5084;51.386;6.778;2023-07-16T06:50:35;5.97;;;3.97;;
10090;SDS011;5084;51.386;6.778;2023-07-16T06:53:01;5.13;;;3.90;;
10090;SDS011;5084;51.386;6.778;2023-07-16T06:55:27;3.93;;;3.50;;
10090;SDS011;5084;51.386;6.778;2023-07-16T06:57:54;5.43;;;4.00;;
10090;SDS011;5084;51.386;6.778;2023-07-16T07:00:20;4.90;;;3.97;;
10090;SDS011;5084;51.386;6.778;2023-07-16T07:02:46;4.20;;;3.70;;
10090;SDS011;5084;51.386;6.778;2023-07-16T07:05:12;5.57;;;4.30;;
10090;SDS011;5084;51.386;6.778;2023-07-16T07:07:38;5.53;;;4.50;;
10090;SDS011;5084;51.386;6.778;2023-07-16T07:10:05;5.23;;;3.93;;
10090;SDS011;5084;51.386;6.778;2023-07-16T07:12:31;5.57;;;4.10;;
10090;SDS011;5084;51.386;6.778;2023-07-16T07:15:02;5.77;;;4.50;;
10090;SDS011;5084;51.386;6.778;2023-07-16T07:17:28;5.67;;;4.50;;
10090;SDS011;5084;51.386;6.778;2023-07-16T07:19:54;5.47;;;4.87;;
10090;SDS011;5084;51.386;6.778;2023-07-16T07:22:21;5.63;;;4.60;;
10090;SDS011;5084;51.386;6.778;2023-07-16T07:24:47;5.43;;;4.47;;
10090;SDS011;5084;51.386;6.778;2023-07-16T07:27:14;8.30;;;5.37;;
10090;SDS011;5084;51.386;6.778;2023-07-16T07:29:40;5.93;;;4.40;;
10090;SDS011;5084;51.386;6.778;2023-07-16T07:32:06;6.83;;;4.73;;
10090;SDS011;5084;51.386;6.778;2023-07-16T07:34:32;5.73;;;4.37;;
10090;SDS011;5084;51.386;6.778;2023-07-16T07:36:59;6.60;;;4.43;;
10090;SDS011;5084;51.386;6.778;2023-07-16T07:39:25;5.27;;;4.37;;
10090;SDS011;5084;51.386;6.778;2023-07-16T07:41:52;9.30;;;4.67;;
10090;SDS011;5084;51.386;6.778;2023-07-16T07:44:18;5.90;;;5.20;;
10090;SDS011;5084;51.386;6.778;2023-07-16T07:46:44;8.55;;;4.55;;
10090;SDS011;5084;51.386;6.778;2023-07-16T07:49:10;5.97;;;5.00;;
10090;SDS011;5084;51.386;6.778;2023-07-16T07:51:37;8.27;;;4.80;;
10090;SDS011;5084;51.386;6.778;2023-07-16T07:54:03;5.67;;;5.13;;
10090;SDS011;5084;51.386;6.778;2023-07-16T07:56:29;8.23;;;4.60;;
10090;SDS011;5084;51.386;6.778;2023-07-16T07:58:56;6.70;;;4.97;;
10090;SDS011;5084;51.386;6.778;2023-07-16T08:01:22;9.17;;;4.67;;
10090;SDS011;5084;51.386;6.778;2023-07-16T08:03:48;5.97;;;4.50;;
10090;SDS011;5084;51.386;6.778;2023-07-16T08:06:15;6.93;;;4.77;;
10090;SDS011;5084;51.386;6.778;2023-07-16T08:08:44;6.57;;;4.97;;
10090;SDS011;5084;51.386;6.778;2023-07-16T08:11:10;7.53;;;4.83;;
10090;SDS011;5084;51.386;6.778;2023-07-16T08:13:37;7.00;;;4.70;;
10090;SDS011;5084;51.386;6.778;2023-07-16T08:16:04;6.50;;;5.30;;
10090;SDS011;5084;51.386;6.778;2023-07-16T08:18:30;8.13;;;5.77;;
10090;SDS011;5084;51.386;6.778;2023-07-16T08:20:56;8.53;;;4.80;;
10090;SDS011;5084;51.386;6.778;2023-07-16T08:23:22;6.27;;;4.50;;
10090;SDS011;5084;51.386;6.778;2023-07-16T08:25:48;12.30;;;5.40;;
10090;SDS011;5084;51.386;6.778;2023-07-16T08:28:18;6.97;;;4.93;;
10090;SDS011;5084;51.386;6.778;2023-07-16T08:30:47;6.17;;;5.20;;
10090;SDS011;5084;51.386;6.778;2023-07-16T08:33:13;8.60;;;4.90;;
10090;SDS011;5084;51.386;6.778;2023-07-16T08:35:40;8.07;;;4.83;;
10090;SDS011;5084;51.386;6.778;2023-07-16T08:38:06;7.83;;;5.60;;
10090;SDS011;5084;51.386;6.778;2023-07-16T08:40:36;7.10;;;5.20;;
10090;SDS011;5084;51.386;6.778;2023-07-16T08:43:02;6.67;;;4.63;;
10090;SDS011;5084;51.386;6.778;2023-07-16T08:45:29;7.43;;;4.83;;
10090;SDS011;5084;51.386;6.778;2023-07-16T08:47:55;5.17;;;4.63;;
10090;SDS011;5084;51.386;6.778;2023-07-16T08:50:22;8.00;;;5.10;;
10090;SDS011;5084;51.386;6.778;2023-07-16T08:52:48;5.10;;;4.30;;
10090;SDS011;5084;51.386;6.778;2023-07-16T08:55:14;7.07;;;4.90;;
10090;SDS011;5084;51.386;6.778;2023-07-16T08:57:41;6.57;;;4.90;;
10090;SDS011;5084;51.386;6.778;2023-07-16T09:00:08;4.80;;;4.30;;
10090;SDS011;5084;51.386;6.778;2023-07-16T09:02:35;5.33;;;4.83;;
10090;SDS011;5084;51.386;6.778;2023-07-16T09:05:01;5.30;;;4.80;;
10090;SDS011;5084;51.386;6.778;2023-07-16T09:07:28;7.83;;;4.53;;
10090;SDS011;5084;51.386;6.778;2023-07-16T09:09:55;4.97;;;4.47;;
10090;SDS011;5084;51.386;6.778;2023-07-16T09:12:23;5.37;;;4.47;;
10090;SDS011;5084;51.386;6.778;2023-07-16T09:14:49;8.17;;;5.33;;
10090;SDS011;5084;51.386;6.778;2023-07-16T09:17:22;7.03;;;4.53;;
10090;SDS011;5084;51.386;6.778;2023-07-16T09:19:52;10.53;;;4.60;;
10090;SDS011;5084;51.386;6.778;2023-07-16T09:22:18;4.90;;;3.90;;
10090;SDS011;5084;51.386;6.778;2023-07-16T09:24:45;6.93;;;4.93;;
10090;SDS011;5084;51.386;6.778;2023-07-16T09:27:12;5.23;;;4.27;;
10090;SDS011;5084;51.386;6.778;2023-07-16T09:29:38;4.70;;;3.93;;
10090;SDS011;5084;51.386;6.778;2023-07-16T09:32:05;4.20;;;3.80;;
10090;SDS011;5084;51.386;6.778;2023-07-16T09:34:31;5.63;;;4.97;;
10090;SDS011;5084;51.386;6.778;2023-07-16T09:36:58;5.43;;;4.83;;
10090;SDS011;5084;51.386;6.778;2023-07-16T09:39:24;4.60;;;3.70;;
10090;SDS011;5084;51.386;6.778;2023-07-16T09:41:51;6.63;;;4.83;;
10090;SDS011;5084;51.386;6.778;2023-07-16T09:44:17;5.40;;;4.50;;
10090;SDS011;5084;51.386;6.778;2023-07-16T09:46:44;7.35;;;4.20;;
10090;SDS011;5084;51.386;6.778;2023-07-16T09:49:10;5.23;;;4.70;;
10090;SDS011;5084;51.386;6.778;2023-07-16T09:51:37;5.37;;;4.27;;
10090;SDS011;5084;51.386;6.778;2023-07-16T09:54:04;5.53;;;4.97;;
10090;SDS011;5084;51.386;6.778;2023-07-16T09:56:35;4.90;;;4.33;;
10090;SDS011;5084;51.386;6.778;2023-07-16T09:59:02;5.67;;;5.17;;
10090;SDS011;5084;51.386;6.778;2023-07-16T10:01:31;7.87;;;4.70;;
10090;SDS011;5084;51.386;6.778;2023-07-16T10:03:57;5.30;;;4.23;;
10090;SDS011;5084;51.386;6.778;2023-07-16T10:06:24;6.07;;;4.37;;
10090;SDS011;5084;51.386;6.778;2023-07-16T10:08:50;5.07;;;4.50;;
10090;SDS011;5084;51.386;6.778;2023-07-16T10:11:16;4.63;;;3.90;;
10090;SDS011;5084;51.386;6.778;2023-07-16T10:13:42;6.87;;;4.40;;
10090;SDS011;5084;51.386;6.778;2023-07-16T10:16:09;5.30;;;4.20;;
10090;SDS011;5084;51.386;6.778;2023-07-16T10:18:50;4.67;;;4.17;;
10090;SDS011;5084;51.386;6.778;2023-07-16T10:21:22;5.03;;;4.37;;
10090;SDS011;5084;51.386;6.778;2023-07-16T10:23:56;6.00;;;4.85;;
10090;SDS011;5084;51.386;6.778;2023-07-16T10:26:26;6.57;;;4.33;;
10090;SDS011;5084;51.386;6.778;2023-07-16T10:28:53;5.23;;;4.50;;
10090;SDS011;5084;51.386;6.778;2023-07-16T10:31:24;5.23;;;4.43;;
10090;SDS011;5084;51.386;6.778;2023-07-16T10:33:59;8.30;;;4.80;;
10090;SDS011;5084;51.386;6.778;2023-07-16T10:36:26;5.20;;;4.30;;
10090;SDS011;5084;51.386;6.778;2023-07-16T10:38:52;6.75;;;4.40;;
10090;SDS011;5084;51.386;6.778;2023-07-16T10:41:18;7.00;;;4.50;;
10090;SDS011;5084;51.386;6.778;2023-07-16T10:43:45;5.10;;;4.50;;
10090;SDS011;5084;51.386;6.778;2023-07-16T10:46:11;7.73;;;4.47;;
10090;SDS011;5084;51.386;6.778;2023-07-16T10:48:37;5.10;;;4.40;;
10090;SDS011;5084;51.386;6.778;2023-07-16T10:51:03;7.07;;;4.43;;
10090;SDS011;5084;51.386;6.778;2023-07-16T10:53:29;5.03;;;3.83;;
10090;SDS011;5084;51.386;6.778;2023-07-16T10:55:56;5.00;;;3.93;;
10090;SDS011;5084;51.386;6.778;2023-07-16T10:58:24;5.60;;;4.03;;
10090;SDS011;5084;51.386;6.778;2023-07-16T11:00:51;7.20;;;4.37;;
10090;SDS011;5084;51.386;6.778;2023-07-16T11:03:17;6.37;;;4.43;;
10090;SDS011;5084;51.386;6.778;2023-07-16T11:05:47;5.33;;;4.27;;
10090;SDS011;5084;51.386;6.778;2023-07-16T11:08:23;4.97;;;4.17;;
10090;SDS011;5084;51.386;6.778;2023-07-16T11:10:59;4.37;;;3.90;;
10090;SDS011;5084;51.386;6.778;2023-07-16T11:13:28;5.80;;;3.80;;
10090;SDS011;5084;51.386;6.778;2023-07-16T11:15:55;5.37;;;4.17;;
10090;SDS011;5084;51.386;6.778;2023-07-16T11:18:25;6.83;;;4.03;;
10090;SDS011;5084;51.386;6.778;2023-07-16T11:20:52;5.37;;;4.03;;
10090;SDS011;5084;51.386;6.778;2023-07-16T11:23:19;4.83;;;3.97;;
10090;SDS011;5084;51.386;6.778;2023-07-16T11:25:45;5.03;;;4.17;;
10090;SDS011;5084;51.386;6.778;2023-07-16T11:28:12;5.80;;;4.57;;
10090;SDS011;5084;51.386;6.778;2023-07-16T11:30:38;6.90;;;4.17;;
10090;SDS011;5084;51.386;6.778;2023-07-16T11:33:04;5.03;;;4.00;;
10090;SDS011;5084;51.386;6.778;2023-07-16T11:35:35;7.83;;;4.70;;
10090;SDS011;5084;51.386;6.778;2023-07-16T11:38:04;4.17;;;3.70;;
10090;SDS011;5084;51.386;6.778;2023-07-16T11:40:33;8.03;;;4.63;;
10090;SDS011;5084;51.386;6.778;2023-07-16T11:43:07;5.63;;;4.27;;
10090;SDS011;5084;51.386;6.778;2023-07-16T11:45:35;5.90;;;4.40;;
10090;SDS011;5084;51.386;6.778;2023-07-16T11:48:01;4.00;;;3.57;;
10090;SDS011;5084;51.386;6.778;2023-07-16T11:50:28;4.23;;;3.83;;
10090;SDS011;5084;51.386;6.778;2023-07-16T11:52:55;5.90;;;4.50;;
10090;SDS011;5084;51.386;6.778;2023-07-16T11:55:22;5.80;;;4.00;;
10090;SDS011;5084;51.386;6.778;2023-07-16T11:57:49;4.70;;;4.23;;
10090;SDS011;5084;51.386;6.778;2023-07-16T12:00:15;6.93;;;4.23;;
10090;SDS011;5084;51.386;6.778;2023-07-16T12:02:42;4.47;;;4.05;;
10090;SDS011;5084;51.386;6.778;2023-07-16T12:05:16;4.53;;;4.13;;
10090;SDS011;5084;51.386;6.778;2023-07-16T12:07:42;4.97;;;4.20;;
10090;SDS011;5084;51.386;6.778;2023-07-16T12:10:08;5.77;;;3.90;;
10090;SDS011;5084;51.386;6.778;2023-07-16T12:12:35;6.37;;;3.57;;
10090;SDS011;5084;51.386;6.778;2023-07-16T12:15:05;4.03;;;3.47;;
10090;SDS011;5084;51.386;6.778;2023-07-16T12:17:31;3.93;;;3.43;;
10090;SDS011;5084;51.386;6.778;2023-07-16T12:19:58;4.20;;;3.77;;
10090;SDS011;5084;51.386;6.778;2023-07-16T12:22:24;7.17;;;4.10;;
10090;SDS011;5084;51.386;6.778;2023-07-16T12:24:50;5.40;;;3.70;;
10090;SDS011;5084;51.386;6.778;2023-07-16T12:27:17;6.83;;;4.10;;
10090;SDS011;5084;51.386;6.778;2023-07-16T12:29:43;6.90;;;4.57;;
10090;SDS011;5084;51.386;6.778;2023-07-16T12:32:10;4.30;;;3.87;;
10090;SDS011;5084;51.386;6.778;2023-07-16T12:34:36;5.03;;;4.00;;
10090;SDS011;5084;51.386;6.778;2023-07-16T12:37:02;5.17;;;3.50;;
10090;SDS011;5084;51.386;6.778;2023-07-16T12:39:29;4.03;;;3.43;;
10090;SDS011;5084;51.386;6.778;2023-07-16T12:41:55;5.80;;;4.00;;
10090;SDS011;5084;51.386;6.778;2023-07-16T12:44:22;5.53;;;4.03;;
10090;SDS011;5084;51.386;6.778;2023-07-16T12:46:48;4.40;;;4.00;;
10090;SDS011;5084;51.386;6.778;2023-07-16T12:49:15;5.60;;;3.93;;
10090;SDS011;5084;51.386;6.778;2023-07-16T12:51:41;5.23;;;4.03;;
10090;SDS011;5084;51.386;6.778;2023-07-16T12:54:08;4.37;;;3.93;;
10090;SDS011;5084;51.386;6.778;2023-07-16T12:56:34;4.10;;;3.67;;
10090;SDS011;5084;51.386;6.778;2023-07-16T12:59:00;5.30;;;4.30;;
10090;SDS011;5084;51.386;6.778;2023-07-16T13:01:26;5.70;;;3.67;;
10090;SDS011;5084;51.386;6.778;2023-07-16T13:03:53;4.63;;;3.77;;
10090;SDS011;5084;51.386;6.778;2023-07-16T13:06:19;5.70;;;4.50;;
10090;SDS011;5084;51.386;6.778;2023-07-16T13:08:46;4.80;;;3.80;;
10090;SDS011;5084;51.386;6.778;2023-07-16T13:11:13;4.47;;;4.07;;
10090;SDS011;5084;51.386;6.778;2023-07-16T13:13:40;4.57;;;4.07;;
10090;SDS011;5084;51.386;6.778;2023-07-16T13:16:09;6.20;;;4.10;;
10090;SDS011;5084;51.386;6.778;2023-07-16T13:18:35;6.63;;;3.80;;
10090;SDS011;5084;51.386;6.778;2023-07-16T13:21:01;6.30;;;3.80;;
10090;SDS011;5084;51.386;6.778;2023-07-16T13:23:28;6.23;;;4.03;;
10090;SDS011;5084;51.386;6.778;2023-07-16T13:25:54;4.30;;;3.87;;
10090;SDS011;5084;51.386;6.778;2023-07-16T13:28:21;5.17;;;3.73;;
10090;SDS011;5084;51.386;6.778;2023-07-16T13:30:49;5.17;;;3.73;;
10090;SDS011;5084;51.386;6.778;2023-07-16T13:33:16;5.20;;;4.70;;
10090;SDS011;5084;51.386;6.778;2023-07-16T13:35:42;5.83;;;3.80;;
10090;SDS011;5084;51.386;6.778;2023-07-16T13:38:08;3.93;;;3.27;;
10090;SDS011;5084;51.386;6.778;2023-07-16T13:40:35;3.90;;;3.60;;
10090;SDS011;5084;51.386;6.778;2023-07-16T13:43:01;5.60;;;4.53;;
10090;SDS011;5084;51.386;6.778;2023-07-16T13:45:28;6.40;;;4.13;;
10090;SDS011;5084;51.386;6.778;2023-07-16T13:47:55;4.30;;;3.90;;
10090;SDS011;5084;51.386;6.778;2023-07-16T13:50:21;3.93;;;3.50;;
10090;SDS011;5084;51.386;6.778;2023-07-16T13:52:47;4.67;;;4.10;;
10090;SDS011;5084;51.386;6.778;2023-07-16T13:55:13;4.20;;;3.67;;
10090;SDS011;5084;51.386;6.778;2023-07-16T13:57:39;5.50;;;3.93;;
10090;SDS011;5084;51.386;6.778;2023-07-16T14:00:07;6.53;;;4.73;;
10090;SDS011;5084;51.386;6.778;2023-07-16T14:02:36;5.87;;;3.67;;
10090;SDS011;5084;51.386;6.778;2023-07-16T14:05:02;3.60;;;3.10;;
10090;SDS011;5084;51.386;6.778;2023-07-16T14:07:29;5.97;;;4.00;;
10090;SDS011;5084;51.386;6.778;2023-07-16T14:09:55;4.63;;;3.47;;
10090;SDS011;5084;51.386;6.778;2023-07-16T14:12:22;4.00;;;3.50;;
10090;SDS011;5084;51.386;6.778;2023-07-16T14:14:48;4.10;;;3.40;;
10090;SDS011;5084;51.386;6.778;2023-07-16T14:17:15;7.83;;;4.20;;
10090;SDS011;5084;51.386;6.778;2023-07-16T14:19:41;4.47;;;3.53;;
10090;SDS011;5084;51.386;6.778;2023-07-16T14:22:07;4.33;;;3.93;;
10090;SDS011;5084;51.386;6.778;2023-07-16T14:24:36;3.80;;;3.50;;
10090;SDS011;5084;51.386;6.778;2023-07-16T14:27:05;4.00;;;3.63;;
10090;SDS011;5084;51.386;6.778;2023-07-16T14:29:32;3.77;;;3.40;;
10090;SDS011;5084;51.386;6.778;2023-07-16T14:31:58;3.87;;;3.50;;
10090;SDS011;5084;51.386;6.778;2023-07-16T14:34:27;3.70;;;3.40;;
10090;SDS011;5084;51.386;6.778;2023-07-16T14:36:53;3.70;;;3.40;;
10090;SDS011;5084;51.386;6.778;2023-07-16T14:39:20;3.40;;;3.20;;
10090;SDS011;5084;51.386;6.778;2023-07-16T14:41:46;4.97;;;3.50;;
10090;SDS011;5084;51.386;6.778;2023-07-16T14:44:12;4.47;;;3.37;;
10090;SDS011;5084;51.386;6.778;2023-07-16T14:46:38;3.40;;;3.10;;
10090;SDS011;5084;51.386;6.778;2023-07-16T14:49:04;3.83;;;3.47;;
10090;SDS011;5084;51.386;6.778;2023-07-16T14:51:31;2.93;;;2.73;;
10090;SDS011;5084;51.386;6.778;2023-07-16T14:54:07;3.80;;;3.00;;
10090;SDS011;5084;51.386;6.778;2023-07-16T14:56:34;3.53;;;3.23;;
10090;SDS011;5084;51.386;6.778;2023-07-16T14:59:02;5.50;;;3.07;;
10090;SDS011;5084;51.386;6.778;2023-07-16T15:01:28;3.77;;;3.47;;
10090;SDS011;5084;51.386;6.778;2023-07-16T15:03:54;3.80;;;3.50;;